createdAt,value
2022-08-03T00:00:24.338Z,100504.63
2022-08-03T00:02:51.089Z,100511.16
2022-08-03T00:05:17.831Z,100503.94
2022-08-03T00:07:44.457Z,100503.41
2022-08-03T00:10:11.041Z,100501.03
2022-08-03T00:12:37.683Z,100501.03
2022-08-03T00:15:04.686Z,100498.78
2022-08-03T00:17:52.795Z,100499.94
2022-08-03T00:20:23.484Z,100501.91
2022-08-03T00:22:50.219Z,100502.94
2022-08-03T00:25:16.944Z,100506.75
2022-08-03T00:27:43.641Z,100504.22
2022-08-03T00:30:10.512Z,100505.91
2022-08-03T00:32:37.143Z,100512.41
2022-08-03T00:35:09.273Z,100510.28
2022-08-03T00:37:41.313Z,100514.19
2022-08-03T00:40:12.686Z,100517.31
2022-08-03T00:42:53.712Z,100525.97
2022-08-03T00:45:28.616Z,100519.63
2022-08-03T00:47:55.496Z,100516.62
2022-08-03T00:50:23.147Z,100519.88
2022-08-03T00:52:50.565Z,100523.16
2022-08-03T00:55:17.182Z,100522.03
2022-08-03T00:57:43.858Z,100526.41
2022-08-03T01:00:18.667Z,100523.88
2022-08-03T01:02:45.254Z,100525.84
2022-08-03T01:05:11.907Z,100527.16
2022-08-03T01:07:42.198Z,100527.28
2022-08-03T01:10:44.023Z,100526.88
2022-08-03T01:14:00.910Z,100527.88
2022-08-03T01:16:36.873Z,100533.16
2022-08-03T01:19:28.167Z,100542.19
2022-08-03T01:22:31.805Z,100537.06
2022-08-03T01:25:07.563Z,100538.66
2022-08-03T01:28:07.330Z,100542.78
2022-08-03T01:30:34.021Z,100537.56
2022-08-03T01:33:03.655Z,100542.22
2022-08-03T01:35:38.615Z,100542.50
2022-08-03T01:38:35.396Z,100542.69
2022-08-03T01:41:09.238Z,100543.38
2022-08-03T01:44:28.606Z,100542.41
2022-08-03T01:46:22.468Z,100541.56
2022-08-03T01:48:49.050Z,100543.25
2022-08-03T01:51:16.935Z,100539.56
2022-08-03T01:53:43.563Z,100542.72
2022-08-03T01:56:10.327Z,100535.50
2022-08-03T01:58:37.462Z,100537.03
2022-08-03T02:01:05.047Z,100540.72
2022-08-03T02:03:32.428Z,100532.81
2022-08-03T02:06:56.789Z,100534.97
2022-08-03T02:08:45.674Z,100537.34
2022-08-03T02:11:12.299Z,100531.16
2022-08-03T02:13:38.900Z,100534.28
2022-08-03T02:16:05.741Z,100534.56
2022-08-03T02:18:32.965Z,100537.94
2022-08-03T02:21:01.273Z,100536.97
2022-08-03T02:23:37.849Z,100536.97
2022-08-03T02:26:05.346Z,100533.16
2022-08-03T02:28:33.283Z,100533.59
2022-08-03T02:31:03.227Z,100535.13
2022-08-03T02:33:34.640Z,100527.09
2022-08-03T02:36:01.316Z,100537.41
2022-08-03T02:38:36.049Z,100535.69
2022-08-03T02:41:08.911Z,100536.00
2022-08-03T02:43:56.799Z,100536.72
2022-08-03T02:46:24.704Z,100541.22
2022-08-03T02:48:51.625Z,100540.66
2022-08-03T02:51:19.330Z,100537.00
2022-08-03T02:53:46.115Z,100546.31
2022-08-03T02:56:13.304Z,100542.06
2022-08-03T02:58:40.509Z,100540.84
2022-08-03T03:01:07.158Z,100541.53
2022-08-03T03:03:35.968Z,100546.31
2022-08-03T03:06:11.322Z,100542.34
2022-08-03T03:08:37.819Z,100541.06
2022-08-03T03:11:05.691Z,100545.56
2022-08-03T03:13:32.131Z,100546.59
2022-08-03T03:16:01.562Z,100548.81
2022-08-03T03:18:28.814Z,100544.59
2022-08-03T03:20:55.393Z,100543.47
2022-08-03T03:23:22.158Z,100536.69
2022-08-03T03:25:48.783Z,100542.50
2022-08-03T03:28:15.190Z,100539.50
2022-08-03T03:30:41.939Z,100548.25
2022-08-03T03:33:08.555Z,100538.25
2022-08-03T03:35:38.835Z,100542.19
2022-08-03T03:38:06.496Z,100544.44
2022-08-03T03:40:33.104Z,100540.22
2022-08-03T03:42:59.516Z,100558.81
2022-08-03T03:45:26.169Z,100551.66
2022-08-03T03:47:52.789Z,100550.38
2022-08-03T03:50:19.525Z,100548.94
2022-08-03T03:52:46.149Z,100549.06
2022-08-03T03:55:16.430Z,100551.47
2022-08-03T03:57:43.024Z,100552.16
2022-08-03T04:00:09.794Z,100552.75
2022-08-03T04:02:36.408Z,100548.25
2022-08-03T04:05:21.471Z,100546.69
2022-08-03T04:08:17.596Z,100547.69
2022-08-03T04:10:59.503Z,100554.16
2022-08-03T04:13:34.612Z,100548.81
2022-08-03T04:16:01.275Z,100560.78
2022-08-03T04:18:28.336Z,100558.53
2022-08-03T04:20:56.369Z,100566.56
2022-08-03T04:23:22.988Z,100570.78
2022-08-03T04:25:49.557Z,100572.06
2022-08-03T04:28:29.713Z,100570.38
2022-08-03T04:30:56.976Z,100575.31
2022-08-03T04:33:25.003Z,100576.16
2022-08-03T04:36:01.832Z,100575.47
2022-08-03T04:38:30.586Z,100581.22
2022-08-03T04:40:57.219Z,100583.22
2022-08-03T04:43:23.826Z,100579.97
2022-08-03T04:45:50.467Z,100583.69
2022-08-03T04:48:17.407Z,100591.72
2022-08-03T04:50:45.530Z,100588.88
2022-08-03T04:53:12.144Z,100591.16
2022-08-03T04:55:39.519Z,100595.94
2022-08-03T04:58:06.500Z,100601.16
2022-08-03T05:00:33.137Z,100601.72
2022-08-03T05:02:59.747Z,100608.59
2022-08-03T05:05:26.536Z,100618.06
2022-08-03T05:08:13.104Z,100610.00
2022-08-03T05:10:39.535Z,100610.16
2022-08-03T05:13:06.129Z,100609.44
2022-08-03T05:15:32.741Z,100611.28
2022-08-03T05:17:59.322Z,100627.50
2022-08-03T05:20:26.082Z,100623.25
2022-08-03T05:22:52.696Z,100625.75
2022-08-03T05:25:22.258Z,100626.75
2022-08-03T05:27:51.131Z,100632.78
2022-08-03T05:30:27.306Z,100633.16
2022-08-03T05:33:01.068Z,100629.59
2022-08-03T05:35:55.908Z,100629.41
2022-08-03T05:38:15.526Z,100629.31
2022-08-03T05:40:57.357Z,100630.28
2022-08-03T05:43:41.311Z,100630.53
2022-08-03T05:46:12.425Z,100626.69
2022-08-03T05:48:39.863Z,100633.59
2022-08-03T05:51:11.404Z,100624.97
2022-08-03T05:53:38.814Z,100629.81
2022-08-03T05:56:14.189Z,100631.66
2022-08-03T05:58:46.208Z,100634.88
2022-08-03T06:01:12.979Z,100635.38
2022-08-03T06:03:39.658Z,100628.00
2022-08-03T06:06:06.293Z,100636.66
2022-08-03T06:08:33.044Z,100642.12
2022-08-03T06:10:59.718Z,100643.16
2022-08-03T06:13:26.284Z,100647.94
2022-08-03T06:15:52.855Z,100643.34
2022-08-03T06:18:19.512Z,100653.28
2022-08-03T06:20:47.230Z,100648.28
2022-08-03T06:23:17.884Z,100653.16
2022-08-03T06:25:45.197Z,100648.13
2022-08-03T06:28:35.148Z,100644.37
2022-08-03T06:31:01.077Z,100636.81
2022-08-03T06:34:31.457Z,100646.84
2022-08-03T06:36:14.475Z,100644.47
2022-08-03T06:38:41.071Z,100651.22
2022-08-03T06:41:07.661Z,100640.87
2022-08-03T06:43:37.978Z,100649.34
2022-08-03T06:46:24.187Z,100643.66
2022-08-03T06:48:51.168Z,100648.91
2022-08-03T06:51:17.848Z,100647.94
2022-08-03T06:53:44.506Z,100651.94
2022-08-03T06:56:11.184Z,100654.03
2022-08-03T06:58:37.803Z,100652.94
2022-08-03T07:01:04.502Z,100654.47
2022-08-03T07:03:31.215Z,100652.31
2022-08-03T07:05:57.916Z,100655.59
2022-08-03T07:08:34.306Z,100650.19
2022-08-03T07:11:01.147Z,100645.00
2022-08-03T07:13:27.761Z,100648.88
2022-08-03T07:15:56.058Z,100650.91
2022-08-03T07:18:28.863Z,100649.16
2022-08-03T07:20:56.447Z,100646.81
2022-08-03T07:23:23.060Z,100660.72
2022-08-03T07:25:50.917Z,100652.88
2022-08-03T07:28:17.648Z,100646.16
2022-08-03T07:30:44.331Z,100645.88
2022-08-03T07:33:11.368Z,100645.22
2022-08-03T07:35:37.998Z,100645.88
2022-08-03T07:38:04.939Z,100646.81
2022-08-03T07:40:32.423Z,100639.75
2022-08-03T07:42:59.643Z,100644.47
2022-08-03T07:45:26.835Z,100645.16
2022-08-03T07:47:54.240Z,100639.66
2022-08-03T07:50:21.500Z,100645.28
2022-08-03T07:52:48.293Z,100637.88
2022-08-03T07:55:18.904Z,100637.91
2022-08-03T07:57:45.555Z,100638.03
2022-08-03T08:00:17.293Z,100632.88
2022-08-03T08:02:43.957Z,100630.88
2022-08-03T08:05:11.043Z,100624.19
2022-08-03T08:07:40.435Z,100627.19
2022-08-03T08:10:07.896Z,100632.56
2022-08-03T08:12:34.539Z,100637.44
2022-08-03T08:15:01.288Z,100632.06
2022-08-03T08:17:28.039Z,100630.37
2022-08-03T08:19:54.622Z,100630.78
2022-08-03T08:22:29.990Z,100636.69
2022-08-03T08:24:57.961Z,100635.16
2022-08-03T08:27:24.538Z,100634.41
2022-08-03T08:29:55.140Z,100633.44
2022-08-03T08:32:23.144Z,100634.50
2022-08-03T08:34:49.761Z,100639.34
2022-08-03T08:37:16.495Z,100632.34
2022-08-03T08:39:43.179Z,100629.47
2022-08-03T08:42:10.277Z,100632.69
2022-08-03T08:44:37.031Z,100624.75
2022-08-03T08:47:04.228Z,100626.66
2022-08-03T08:49:30.933Z,100629.09
2022-08-03T08:52:00.731Z,100624.75
2022-08-03T08:54:28.107Z,100627.97
2022-08-03T08:56:54.994Z,100624.44
2022-08-03T08:59:21.626Z,100630.19
2022-08-03T09:01:48.638Z,100629.59
2022-08-03T09:04:15.328Z,100623.31
2022-08-03T09:06:53.692Z,100620.97
2022-08-03T09:10:05.353Z,100617.91
2022-08-03T09:12:39.086Z,100620.75
2022-08-03T09:15:38.150Z,100610.47
2022-08-03T09:18:04.883Z,100614.38
2022-08-03T09:20:33.365Z,100615.53
2022-08-03T09:23:19.053Z,100606.19
2022-08-03T09:25:50.972Z,100613.75
2022-08-03T09:28:56.577Z,100616.37
2022-08-03T09:31:04.494Z,100618.25
2022-08-03T09:33:36.249Z,100606.78
2022-08-03T09:36:02.949Z,100612.00
2022-08-03T09:38:29.539Z,100601.47
2022-08-03T09:41:00.079Z,100604.66
2022-08-03T09:43:28.006Z,100597.72
2022-08-03T09:46:03.143Z,100600.97
2022-08-03T09:48:30.667Z,100596.59
2022-08-03T09:51:33.000Z,100597.44
2022-08-03T09:53:58.609Z,100590.47
2022-08-03T09:56:39.060Z,100592.66
2022-08-03T09:59:05.646Z,100586.41
2022-08-03T10:01:36.029Z,100590.03
2022-08-03T10:04:04.890Z,100585.53
2022-08-03T10:06:31.950Z,100588.72
2022-08-03T10:09:24.858Z,100581.03
2022-08-03T10:11:51.437Z,100575.91
2022-08-03T10:14:21.042Z,100571.94
2022-08-03T10:16:47.767Z,100572.44
2022-08-03T10:19:15.596Z,100570.94
2022-08-03T10:21:53.221Z,100572.53
2022-08-03T10:24:25.067Z,100563.63
2022-08-03T10:26:51.686Z,100566.16
2022-08-03T10:29:21.369Z,100566.94
2022-08-03T10:31:58.268Z,100568.59
2022-08-03T10:34:26.892Z,100568.53
2022-08-03T10:36:55.734Z,100570.56
2022-08-03T10:39:23.021Z,100569.41
2022-08-03T10:41:49.906Z,100563.44
2022-08-03T10:44:20.736Z,100562.91
2022-08-03T10:46:48.415Z,100559.50
2022-08-03T10:49:16.080Z,100554.91
2022-08-03T10:51:46.649Z,100546.00
2022-08-03T10:54:35.342Z,100546.38
2022-08-03T10:57:20.576Z,100540.91
2022-08-03T10:59:47.048Z,100540.53
2022-08-03T11:02:14.594Z,100530.22
2022-08-03T11:04:41.707Z,100543.22
2022-08-03T11:07:17.721Z,100527.53
2022-08-03T11:09:47.610Z,100533.62
2022-08-03T11:12:33.471Z,100516.44
2022-08-03T11:15:02.026Z,100520.47
2022-08-03T11:17:28.700Z,100516.19
2022-08-03T11:19:57.297Z,100510.78
2022-08-03T11:22:25.117Z,100516.94
2022-08-03T11:24:54.115Z,100511.06
2022-08-03T11:27:21.467Z,100519.53
2022-08-03T11:30:19.605Z,100517.50
2022-08-03T11:32:51.644Z,100513.62
2022-08-03T11:35:29.147Z,100511.16
2022-08-03T11:38:03.405Z,100506.94
2022-08-03T11:40:47.940Z,100504.03
2022-08-03T11:43:31.427Z,100501.91
2022-08-03T11:45:59.119Z,100501.37
2022-08-03T11:48:40.923Z,100498.44
2022-08-03T11:51:08.204Z,100496.41
2022-08-03T11:53:41.716Z,100501.47
2022-08-03T11:56:13.002Z,100493.63
2022-08-03T11:59:17.208Z,100499.25
2022-08-03T12:01:33.379Z,100492.47
2022-08-03T12:04:06.387Z,100493.75
2022-08-03T12:06:54.857Z,100487.25
2022-08-03T12:09:21.790Z,100488.66
2022-08-03T12:11:59.941Z,100483.91
2022-08-03T12:14:49.546Z,100484.56
2022-08-03T12:17:14.986Z,100480.03
2022-08-03T12:19:42.809Z,100474.19
2022-08-03T12:22:09.401Z,100472.47
2022-08-03T12:24:47.238Z,100473.56
2022-08-03T12:27:25.313Z,100470.38
2022-08-03T12:29:58.582Z,100459.53
2022-08-03T12:32:26.153Z,100465.72
2022-08-03T12:34:52.735Z,100458.94
2022-08-03T12:37:29.352Z,100458.06
2022-08-03T12:40:02.698Z,100455.38
2022-08-03T12:42:32.668Z,100451.09
2022-08-03T12:44:59.253Z,100454.13
2022-08-03T12:47:25.920Z,100444.72
2022-08-03T12:49:53.844Z,100453.25
2022-08-03T12:52:22.051Z,100444.91
2022-08-03T12:54:59.330Z,100452.62
2022-08-03T12:57:26.042Z,100441.81
2022-08-03T12:59:55.879Z,100442.81
2022-08-03T13:02:24.668Z,100441.69
2022-08-03T13:04:52.554Z,100446.16
2022-08-03T13:07:19.919Z,100440.75
2022-08-03T13:09:47.311Z,100434.38
2022-08-03T13:12:21.407Z,100432.03
2022-08-03T13:14:58.645Z,100429.03
2022-08-03T13:17:25.512Z,100425.56
2022-08-03T13:19:52.534Z,100425.50
2022-08-03T13:22:19.900Z,100423.06
2022-08-03T13:24:47.778Z,100422.78
2022-08-03T13:28:01.464Z,100416.16
2022-08-03T13:30:01.104Z,100415.72
2022-08-03T13:32:27.708Z,100418.22
2022-08-03T13:34:54.337Z,100407.47
2022-08-03T13:37:21.457Z,100414.41
2022-08-03T13:39:59.662Z,100409.38
2022-08-03T13:42:31.710Z,100407.41
2022-08-03T13:44:58.897Z,100402.75
2022-08-03T13:47:25.747Z,100401.09
2022-08-03T13:50:00.094Z,100398.31
2022-08-03T13:52:28.944Z,100397.91
2022-08-03T13:54:55.384Z,100393.22
2022-08-03T13:58:02.919Z,100384.50
2022-08-03T14:00:09.167Z,100387.41
2022-08-03T14:02:35.861Z,100388.97
2022-08-03T14:05:02.519Z,100386.63
2022-08-03T14:07:29.091Z,100382.22
2022-08-03T14:09:55.689Z,100383.66
2022-08-03T14:12:22.269Z,100372.31
2022-08-03T14:14:48.870Z,100373.09
2022-08-03T14:17:16.380Z,100374.22
2022-08-03T14:19:52.769Z,100373.38
2022-08-03T14:22:20.352Z,100366.56
2022-08-03T14:24:46.966Z,100364.09
2022-08-03T14:27:13.553Z,100358.16
2022-08-03T14:29:40.203Z,100361.09
2022-08-03T14:32:10.174Z,100357.62
2022-08-03T14:34:38.929Z,100352.81
2022-08-03T14:37:05.626Z,100354.91
2022-08-03T14:42:20.385Z,100352.75
2022-08-03T14:44:47.336Z,100346.06
2022-08-03T14:47:14.266Z,100355.25
2022-08-03T14:50:33.699Z,100359.44
2022-08-03T14:52:27.575Z,100344.19
2022-08-03T14:54:54.158Z,100337.22
2022-08-03T14:57:21.016Z,100340.56
2022-08-03T14:59:55.903Z,100337.69
2022-08-03T15:02:27.898Z,100343.34
2022-08-03T15:04:54.597Z,100340.81
2022-08-03T15:07:21.404Z,100336.34
2022-08-03T15:09:48.195Z,100345.66
2022-08-03T15:12:14.942Z,100349.56
2022-08-03T15:14:41.561Z,100339.59
2022-08-03T15:17:08.177Z,100345.87
2022-08-03T15:20:02.294Z,100338.72
2022-08-03T15:22:25.015Z,100330.97
2022-08-03T15:25:02.530Z,100332.50
2022-08-03T15:27:29.150Z,100332.03
2022-08-03T15:30:06.902Z,100332.41
2022-08-03T15:32:36.852Z,100334.53
2022-08-03T15:35:03.626Z,100328.66
2022-08-03T15:37:30.264Z,100333.06
2022-08-03T15:40:00.017Z,100333.00
2022-08-03T15:42:30.340Z,100322.53
2022-08-03T15:44:57.107Z,100325.50
2022-08-03T15:47:23.914Z,100323.88
2022-08-03T15:49:50.515Z,100328.19
2022-08-03T15:52:17.140Z,100324.75
2022-08-03T15:54:43.739Z,100327.88
2022-08-03T15:57:10.482Z,100323.47
2022-08-03T15:59:37.065Z,100331.97
2022-08-03T16:02:03.763Z,100320.03
2022-08-03T16:04:30.408Z,100326.75
2022-08-03T16:06:57.018Z,100323.59
2022-08-03T16:09:43.035Z,100327.56
2022-08-03T16:12:11.811Z,100319.41
2022-08-03T16:14:51.724Z,100326.75
2022-08-03T16:17:19.060Z,100315.03
2022-08-03T16:19:45.958Z,100316.91
2022-08-03T16:22:13.421Z,100318.16
2022-08-03T16:24:41.219Z,100326.53
2022-08-03T16:27:17.338Z,100322.16
2022-08-03T16:29:54.422Z,100323.19
2022-08-03T16:32:21.049Z,100319.44
2022-08-03T16:34:48.229Z,100313.16
2022-08-03T16:37:37.010Z,100319.44
2022-08-03T16:40:01.566Z,100317.59
2022-08-03T16:42:28.140Z,100321.38
2022-08-03T16:44:54.805Z,100317.63
2022-08-03T16:47:22.449Z,100314.91
2022-08-03T16:49:55.996Z,100310.53
2022-08-03T16:52:23.575Z,100316.41
2022-08-03T16:54:50.760Z,100316.41
2022-08-03T16:57:56.367Z,100320.84
2022-08-03T17:00:08.809Z,100322.06
2022-08-03T17:02:36.039Z,100320.22
2022-08-03T17:05:03.275Z,100319.38
2022-08-03T17:07:30.497Z,100326.91
2022-08-03T17:09:57.133Z,100324.59
2022-08-03T17:12:26.017Z,100327.06
2022-08-03T17:14:54.170Z,100332.50
2022-08-03T17:17:30.185Z,100328.31
2022-08-03T17:20:10.141Z,100333.53
2022-08-03T17:22:38.764Z,100335.00
2022-08-03T17:25:07.833Z,100339.97
2022-08-03T17:28:51.519Z,100339.09
2022-08-03T17:30:21.310Z,100345.13
2022-08-03T17:32:56.774Z,100350.75
2022-08-03T17:35:24.616Z,100343.88
2022-08-03T17:38:03.500Z,100349.25
2022-08-03T17:40:31.565Z,100353.00
2022-08-03T17:43:00.027Z,100353.81
2022-08-03T17:45:52.562Z,100353.97
2022-08-03T17:48:18.698Z,100359.75
2022-08-03T17:50:57.785Z,100361.19
2022-08-03T17:53:31.577Z,100359.91
2022-08-03T17:56:40.769Z,100356.13
2022-08-03T17:59:50.891Z,100361.31
2022-08-03T18:02:48.453Z,100358.78
2022-08-03T18:05:16.617Z,100364.34
2022-08-03T18:08:01.579Z,100361.75
2022-08-03T18:10:33.200Z,100364.62
2022-08-03T18:13:04.296Z,100369.13
2022-08-03T18:15:42.622Z,100370.94
2022-08-03T18:18:11.168Z,100368.84
2022-08-03T18:20:41.581Z,100371.69
2022-08-03T18:23:24.563Z,100373.50
2022-08-03T18:26:15.511Z,100374.44
2022-08-03T18:28:42.258Z,100374.44
2022-08-03T18:31:12.851Z,100380.63
2022-08-03T18:36:46.691Z,100384.06
2022-08-03T18:39:14.770Z,100387.31
2022-08-03T18:41:46.496Z,100385.19
2022-08-03T18:44:37.674Z,100384.09
2022-08-03T18:50:41.390Z,100400.38
2022-08-03T18:53:19.793Z,100396.16
2022-08-03T18:56:45.539Z,100398.41
2022-08-03T18:59:16.466Z,100402.34
2022-08-03T19:02:20.566Z,100408.69
2022-08-03T19:04:47.980Z,100399.94
2022-08-03T19:07:22.267Z,100407.56
2022-08-03T19:09:58.490Z,100414.38
2022-08-03T19:12:39.563Z,100415.44
2022-08-03T19:15:10.619Z,100413.56
2022-08-03T19:17:53.669Z,100417.03
2022-08-03T19:20:22.718Z,100425.53
2022-08-03T19:22:52.233Z,100423.34
2022-08-03T19:25:19.071Z,100433.91
2022-08-03T19:27:46.115Z,100423.66
2022-08-03T19:30:35.320Z,100426.87
2022-08-03T19:33:11.185Z,100428.75
2022-08-03T19:35:51.283Z,100439.75
2022-08-03T19:38:28.546Z,100441.59
2022-08-03T19:41:00.860Z,100439.25
2022-08-03T19:43:33.120Z,100443.66
2022-08-03T19:46:15.835Z,100441.97
2022-08-03T19:48:43.600Z,100442.53
2022-08-03T19:51:12.389Z,100445.41
2022-08-03T19:53:44.928Z,100445.62
2022-08-03T19:56:12.906Z,100443.44
2022-08-03T19:58:40.268Z,100450.06
2022-08-03T20:01:19.223Z,100444.09
2022-08-03T20:03:48.116Z,100449.88
2022-08-03T20:06:18.491Z,100452.75
2022-08-03T20:08:45.123Z,100457.84
2022-08-03T20:11:15.197Z,100456.19
2022-08-03T20:13:44.844Z,100450.00
2022-08-03T20:16:14.941Z,100448.19
2022-08-03T20:18:42.632Z,100452.09
2022-08-03T20:21:15.315Z,100449.75
2022-08-03T20:24:02.064Z,100452.81
2022-08-03T20:26:29.558Z,100444.59
2022-08-03T20:29:00.524Z,100449.69
2022-08-03T20:31:36.435Z,100452.28
2022-08-03T20:34:03.414Z,100447.22
2022-08-03T20:36:30.289Z,100447.78
2022-08-03T20:38:58.155Z,100450.00
2022-08-03T20:41:24.936Z,100448.50
2022-08-03T20:43:51.532Z,100447.84
2022-08-03T20:46:30.862Z,100456.06
2022-08-03T20:49:05.588Z,100449.19
2022-08-03T20:51:50.373Z,100452.47
2022-08-03T20:54:30.664Z,100453.97
2022-08-03T20:57:10.220Z,100449.56
2022-08-03T20:59:50.254Z,100450.09
2022-08-03T21:02:28.841Z,100449.09
2022-08-03T21:04:56.323Z,100447.94
2022-08-03T21:07:23.124Z,100448.13
2022-08-03T21:09:55.956Z,100452.53
2022-08-03T21:12:41.642Z,100462.47
2022-08-03T21:13:04.733Z,100384.12
2022-08-03T21:15:09.580Z,100456.12
2022-08-03T21:17:57.564Z,100460.34
2022-08-03T21:20:30.769Z,100459.69
2022-08-03T21:22:57.717Z,100458.00
2022-08-03T21:25:32.164Z,100465.94
2022-08-03T21:27:58.781Z,100464.63
2022-08-03T21:30:26.234Z,100465.31
2022-08-03T21:32:53.593Z,100466.84
2022-08-03T21:35:20.387Z,100469.38
2022-08-03T21:37:47.105Z,100480.53
2022-08-03T21:40:15.660Z,100481.03
2022-08-03T21:42:43.884Z,100477.00
2022-08-03T21:45:16.839Z,100484.25
2022-08-03T21:47:44.123Z,100483.75
2022-08-03T21:50:11.663Z,100488.09
2022-08-03T21:52:46.018Z,100487.09
2022-08-03T21:55:20.885Z,100483.72
2022-08-03T21:57:51.906Z,100485.75
2022-08-03T22:00:19.746Z,100485.94
2022-08-03T22:02:54.475Z,100492.69
2022-08-03T22:05:42.723Z,100487.28
2022-08-03T22:08:09.019Z,100494.50
2022-08-03T22:10:35.737Z,100493.00
2022-08-03T22:13:02.321Z,100493.34
2022-08-03T22:15:28.936Z,100493.69
2022-08-03T22:17:57.347Z,100496.72
2022-08-03T22:20:24.306Z,100488.28
2022-08-03T22:22:55.776Z,100489.62
2022-08-03T22:25:29.255Z,100497.19
2022-08-03T22:27:56.512Z,100494.03
2022-08-03T22:30:23.083Z,100507.81
2022-08-03T22:32:50.376Z,100498.53
2022-08-03T22:35:16.963Z,100497.00
2022-08-03T22:37:43.565Z,100503.38
2022-08-03T22:40:12.168Z,100508.94
2022-08-03T22:42:39.859Z,100502.88
2022-08-03T22:45:07.143Z,100499.84
2022-08-03T22:47:38.066Z,100498.63
2022-08-03T22:50:31.747Z,100503.53
2022-08-03T22:52:55.761Z,100512.44
2022-08-03T22:55:24.845Z,100504.87
2022-08-03T22:57:55.660Z,100509.06
2022-08-03T23:00:22.890Z,100507.34
2022-08-03T23:02:49.570Z,100513.59
2022-08-03T23:06:01.224Z,100513.75
2022-08-03T23:08:05.003Z,100514.56
2022-08-03T23:10:31.600Z,100518.06
2022-08-03T23:12:58.171Z,100518.94
2022-08-03T23:15:24.787Z,100523.81
2022-08-03T23:17:57.694Z,100523.25
2022-08-03T23:20:26.582Z,100517.88
2022-08-03T23:22:54.139Z,100517.72
2022-08-03T23:25:22.059Z,100520.50
2022-08-03T23:27:48.673Z,100521.84
2022-08-03T23:30:32.330Z,100522.31
2022-08-03T23:32:58.895Z,100533.88
2022-08-03T23:36:29.113Z,100526.81
2022-08-03T23:38:31.847Z,100540.91
2022-08-03T23:40:59.723Z,100539.16
2022-08-03T23:43:52.076Z,100541.69
2022-08-03T23:46:13.656Z,100538.31
2022-08-03T23:48:44.883Z,100538.81
2022-08-03T23:51:16.681Z,100533.06
2022-08-03T23:54:06.399Z,100531.69
2022-08-03T23:56:45.041Z,100535.06
2022-08-03T23:59:27.897Z,100531.59
